Amsterdam, Missouri
Current Conditions -  °F | °C
As of 7:53 AM on Friday 19 Dec 2014 (Local Time) from KOJC Reporting Station
Haze Haze  
Wind Chill: 31°   Ceiling: 500
Heat Index: 31°   Visibility: 5mi
Dew Point: 29°   Wind: 0mph
Humidity: 92%   Direction: NA
Pressure: 30.24"   Gusts: NA
Location:  38.35°N, 94.59°W
Report Text: KOJC 191353Z 00000KT 5SM BR OVC005 M01/M02 A3024 RMK AO2 SLP252 T10061017
Loading
Personal Weather Stations






























Interactive Weather Map New forecast layout! Learn more

10-Day Weather Forecast

Advertisements
Track Severe Weather on mobile